createdAt,value
2019-04-14T00:01:15.623Z,6.67
2019-04-14T00:03:50.179Z,6.80
2019-04-14T00:06:22.389Z,6.47
2019-04-14T00:08:52.749Z,6.40
2019-04-14T00:11:23.397Z,6.53
2019-04-14T00:13:54.463Z,6.13
2019-04-14T00:16:24.914Z,7.03
2019-04-14T00:18:55.525Z,6.67
2019-04-14T00:21:26.075Z,5.92
2019-04-14T00:23:56.644Z,5.97
2019-04-14T00:26:31.784Z,6.03
2019-04-14T00:29:02.703Z,5.53
2019-04-14T00:31:33.193Z,5.50
2019-04-14T00:34:11.359Z,5.70
2019-04-14T00:36:48.756Z,5.23
2019-04-14T00:39:20.559Z,5.23
2019-04-14T00:42:03.386Z,5.33
2019-04-14T00:44:41.022Z,4.87
2019-04-14T00:47:22.202Z,4.63
2019-04-14T00:49:52.997Z,5.13
2019-04-14T00:52:23.499Z,4.87
2019-04-14T00:54:54.319Z,4.40
2019-04-14T00:57:24.779Z,4.53
2019-04-14T00:59:55.251Z,4.83
2019-04-14T01:02:25.573Z,4.70
2019-04-14T01:04:55.615Z,4.97
2019-04-14T01:07:26.206Z,4.40
2019-04-14T01:09:57.448Z,5.17
2019-04-14T01:12:27.843Z,5.77
2019-04-14T01:14:58.230Z,5.07
2019-04-14T01:17:28.795Z,5.60
2019-04-14T01:19:59.273Z,5.93
2019-04-14T01:22:29.379Z,5.00
2019-04-14T01:24:59.968Z,5.80
2019-04-14T01:27:30.132Z,5.78
2019-04-14T01:30:00.866Z,5.67
2019-04-14T01:32:30.999Z,5.40
2019-04-14T01:35:01.034Z,6.27
2019-04-14T01:37:31.235Z,5.37
2019-04-14T01:40:01.452Z,6.07
2019-04-14T01:42:31.487Z,5.83
2019-04-14T01:45:01.461Z,6.00
2019-04-14T01:47:31.446Z,5.30
2019-04-14T01:50:01.845Z,5.10
2019-04-14T01:52:40.546Z,5.50
2019-04-14T01:55:13.358Z,5.57
2019-04-14T01:57:56.926Z,5.70
2019-04-14T02:00:38.116Z,6.67
2019-04-14T02:03:08.530Z,5.15
2019-04-14T02:05:38.656Z,5.77
2019-04-14T02:08:09.092Z,5.97
2019-04-14T02:10:39.357Z,5.30
2019-04-14T02:13:09.791Z,5.50
2019-04-14T02:15:39.993Z,5.53
2019-04-14T02:18:10.050Z,4.93
2019-04-14T02:20:40.363Z,5.10
2019-04-14T02:23:10.781Z,4.87
2019-04-14T02:25:40.881Z,5.03
2019-04-14T02:28:11.252Z,5.10
2019-04-14T02:30:49.323Z,5.40
2019-04-14T02:33:52.573Z,5.00
2019-04-14T02:36:26.999Z,5.50
2019-04-14T02:38:49.238Z,5.67
2019-04-14T02:41:18.378Z,5.60
2019-04-14T02:43:48.205Z,4.93
2019-04-14T02:48:53.354Z,5.70
2019-04-14T02:56:35.799Z,4.97
2019-04-14T03:04:17.011Z,5.40
2019-04-14T03:06:26.016Z,4.97
2019-04-14T03:11:32.645Z,4.77
2019-04-14T03:14:07.516Z,5.50
2019-04-14T03:17:05.871Z,5.23
2019-04-14T03:19:24.986Z,4.97
2019-04-14T03:22:07.252Z,4.90
2019-04-14T03:24:37.445Z,4.73
2019-04-14T03:27:26.529Z,5.67
2019-04-14T03:30:08.747Z,5.30
2019-04-14T03:33:00.521Z,5.80
2019-04-14T03:35:27.179Z,4.73
2019-04-14T03:40:01.188Z,5.67
2019-04-14T03:42:49.783Z,4.70
2019-04-14T03:45:04.198Z,4.77
2019-04-14T03:47:57.725Z,4.83
2019-04-14T03:50:17.508Z,4.83
2019-04-14T03:52:49.820Z,5.20
2019-04-14T03:55:08.071Z,5.10
2019-04-14T03:57:21.529Z,5.80
2019-04-14T03:59:52.108Z,6.07
2019-04-14T04:02:22.629Z,4.77
2019-04-14T04:04:53.397Z,5.03
2019-04-14T04:07:23.676Z,5.43
2019-04-14T04:09:56.200Z,5.27
2019-04-14T04:12:27.166Z,4.87
2019-04-14T04:14:57.556Z,5.40
2019-04-14T04:17:36.298Z,5.33
2019-04-14T04:20:27.069Z,5.33
2019-04-14T04:23:16.182Z,5.13
2019-04-14T04:25:50.863Z,4.97
2019-04-14T04:28:29.830Z,5.23
2019-04-14T04:31:04.556Z,4.97
2019-04-14T04:33:39.380Z,5.03
2019-04-14T04:36:20.370Z,5.03
2019-04-14T04:39:01.812Z,5.40
2019-04-14T04:41:32.123Z,5.37
2019-04-14T04:44:02.920Z,5.37
2019-04-14T04:46:33.285Z,5.07
2019-04-14T04:49:13.982Z,5.60
2019-04-14T04:51:37.755Z,5.97
2019-04-14T04:54:08.081Z,5.17
2019-04-14T04:56:38.389Z,5.83
2019-04-14T04:59:09.689Z,6.47
2019-04-14T05:01:40.768Z,6.60
2019-04-14T05:04:11.140Z,6.47
2019-04-14T05:06:54.670Z,6.07
2019-04-14T05:09:27.545Z,6.90
2019-04-14T05:12:15.517Z,6.70
2019-04-14T05:14:56.715Z,7.00
2019-04-14T05:17:32.014Z,6.03
2019-04-14T05:20:03.224Z,6.17
2019-04-14T05:22:33.982Z,6.73
2019-04-14T05:25:06.340Z,6.40
2019-04-14T05:27:36.538Z,6.43
2019-04-14T05:30:07.331Z,7.03
2019-04-14T05:32:37.599Z,7.57
2019-04-14T05:35:07.932Z,7.07
2019-04-14T05:37:37.954Z,7.43
2019-04-14T05:40:08.548Z,6.83
2019-04-14T05:42:38.792Z,6.87
2019-04-14T05:45:09.209Z,6.63
2019-04-14T05:47:39.754Z,6.43
2019-04-14T05:50:11.566Z,6.17
2019-04-14T05:52:42.583Z,6.27
2019-04-14T05:55:13.484Z,5.57
2019-04-14T05:57:43.861Z,6.37
2019-04-14T06:00:16.731Z,6.20
2019-04-14T06:02:46.782Z,6.80
2019-04-14T06:05:18.958Z,7.30
2019-04-14T06:07:49.617Z,6.23
2019-04-14T06:10:19.757Z,7.43
2019-04-14T06:12:49.873Z,7.33
2019-04-14T06:15:19.952Z,7.27
2019-04-14T06:17:50.203Z,7.70
2019-04-14T06:20:20.180Z,7.87
2019-04-14T06:22:50.186Z,7.87
2019-04-14T06:25:20.343Z,7.83
2019-04-14T06:27:50.270Z,7.70
2019-04-14T06:30:35.656Z,7.27
2019-04-14T06:33:07.493Z,7.33
2019-04-14T06:35:48.264Z,6.90
2019-04-14T06:38:19.776Z,7.47
2019-04-14T06:40:51.592Z,8.50
2019-04-14T06:43:21.689Z,7.73
2019-04-14T06:45:51.795Z,8.00
2019-04-14T06:48:21.735Z,7.20
2019-04-14T06:50:51.946Z,7.50
2019-04-14T06:53:22.077Z,7.93
2019-04-14T06:55:52.149Z,7.33
2019-04-14T06:58:22.317Z,8.50
2019-04-14T07:00:52.445Z,7.93
2019-04-14T07:03:22.505Z,7.20
2019-04-14T07:05:52.758Z,7.20
2019-04-14T07:08:23.015Z,8.23
2019-04-14T07:10:53.241Z,7.67
2019-04-14T07:13:23.479Z,7.03
2019-04-14T07:15:53.744Z,7.00
2019-04-14T07:18:23.991Z,8.20
2019-04-14T07:20:54.499Z,7.57
2019-04-14T07:23:24.840Z,8.90
2019-04-14T07:25:54.917Z,7.37
2019-04-14T07:28:25.164Z,7.73
2019-04-14T07:31:13.567Z,6.70
2019-04-14T07:34:01.842Z,6.47
2019-04-14T07:36:35.996Z,6.57
2019-04-14T07:39:11.304Z,7.00
2019-04-14T07:41:43.095Z,6.73
2019-04-14T07:44:20.888Z,6.93
2019-04-14T07:46:57.381Z,6.50
2019-04-14T07:49:46.042Z,7.07
2019-04-14T07:52:33.891Z,8.17
2019-04-14T07:55:05.800Z,6.43
2019-04-14T07:57:54.316Z,6.40
2019-04-14T08:00:38.220Z,5.90
2019-04-14T08:03:12.765Z,6.17
2019-04-14T08:05:44.746Z,6.70
2019-04-14T08:08:14.828Z,6.07
2019-04-14T08:10:44.949Z,6.47
2019-04-14T08:13:15.169Z,6.23
2019-04-14T08:15:45.296Z,6.13
2019-04-14T08:18:15.393Z,6.80
2019-04-14T08:20:45.705Z,6.20
2019-04-14T08:23:15.837Z,7.07
2019-04-14T08:25:45.933Z,6.80
2019-04-14T08:28:15.987Z,5.90
2019-04-14T08:30:46.217Z,5.53
2019-04-14T08:33:16.535Z,6.50
2019-04-14T08:35:46.545Z,6.33
2019-04-14T08:38:16.598Z,6.27
2019-04-14T08:40:46.699Z,6.80
2019-04-14T08:43:21.014Z,5.53
2019-04-14T08:46:06.225Z,6.10
2019-04-14T08:48:49.717Z,7.63
2019-04-14T08:51:37.951Z,6.43
2019-04-14T08:54:12.554Z,6.40
2019-04-14T08:56:47.177Z,6.20
2019-04-14T08:59:35.143Z,6.30
2019-04-14T09:02:25.235Z,6.53
2019-04-14T09:04:59.509Z,7.07
2019-04-14T09:07:34.113Z,6.37
2019-04-14T09:10:12.809Z,6.30
2019-04-14T09:12:47.227Z,6.13
2019-04-14T09:15:17.327Z,6.33
2019-04-14T09:17:47.433Z,6.43
2019-04-14T09:20:17.574Z,6.67
2019-04-14T09:22:47.562Z,7.20
2019-04-14T09:25:17.579Z,6.93
2019-04-14T09:27:47.741Z,6.70
2019-04-14T09:30:17.994Z,7.67
2019-04-14T09:32:48.087Z,7.27
2019-04-14T09:35:18.103Z,7.93
2019-04-14T09:37:48.074Z,6.70
2019-04-14T09:40:18.232Z,7.00
2019-04-14T09:42:48.550Z,7.23
2019-04-14T09:45:18.630Z,6.90
2019-04-14T09:47:48.702Z,6.90
2019-04-14T09:50:18.754Z,6.70
2019-04-14T09:52:48.948Z,8.07
2019-04-14T09:55:18.974Z,7.07
2019-04-14T09:57:51.211Z,7.33
2019-04-14T10:00:21.447Z,7.53
2019-04-14T10:02:51.562Z,6.67
2019-04-14T10:05:21.810Z,6.97
2019-04-14T10:07:52.294Z,6.97
2019-04-14T10:10:22.748Z,6.33
2019-04-14T10:12:53.012Z,6.90
2019-04-14T10:15:23.190Z,7.20
2019-04-14T10:17:53.408Z,6.50
2019-04-14T10:20:23.658Z,7.40
2019-04-14T10:22:53.726Z,6.73
2019-04-14T10:25:23.885Z,6.97
2019-04-14T10:27:54.054Z,7.37
2019-04-14T10:30:24.360Z,7.77
2019-04-14T10:32:54.712Z,7.00
2019-04-14T10:35:24.893Z,7.97
2019-04-14T10:37:55.227Z,8.07
2019-04-14T10:40:25.560Z,7.77
2019-04-14T10:42:55.637Z,7.93
2019-04-14T10:45:25.630Z,8.80
2019-04-14T10:47:56.900Z,7.73
2019-04-14T10:50:31.054Z,8.37
2019-04-14T10:52:58.996Z,8.60
2019-04-14T10:55:29.088Z,9.27
2019-04-14T10:57:59.572Z,8.27
2019-04-14T11:00:29.973Z,8.33
2019-04-14T11:03:00.622Z,9.40
2019-04-14T11:05:32.639Z,8.67
2019-04-14T11:08:03.097Z,9.43
2019-04-14T11:10:33.342Z,9.23
2019-04-14T11:13:03.634Z,9.30
2019-04-14T11:15:34.081Z,9.07
2019-04-14T11:18:04.883Z,8.90
2019-04-14T11:20:35.557Z,8.50
2019-04-14T11:23:05.767Z,9.13
2019-04-14T11:25:35.887Z,9.27
2019-04-14T11:28:06.106Z,9.20
2019-04-14T11:30:36.530Z,9.07
2019-04-14T11:33:23.322Z,9.80
2019-04-14T11:36:03.877Z,8.47
2019-04-14T11:38:38.379Z,8.93
2019-04-14T11:41:10.191Z,9.47
2019-04-14T11:43:41.293Z,9.27
2019-04-14T11:46:11.393Z,9.60
2019-04-14T11:48:41.791Z,8.53
2019-04-14T11:51:11.966Z,8.20
2019-04-14T11:53:42.083Z,8.30
2019-04-14T11:56:12.328Z,9.17
2019-04-14T11:58:42.657Z,8.60
2019-04-14T12:01:16.992Z,8.67
2019-04-14T12:03:58.176Z,7.33
2019-04-14T12:06:35.990Z,6.80
2019-04-14T12:09:21.064Z,6.17
2019-04-14T12:11:51.331Z,7.80
2019-04-14T12:14:22.787Z,7.90
2019-04-14T12:16:53.207Z,6.87
2019-04-14T12:19:23.783Z,7.37
2019-04-14T12:21:54.210Z,7.30
2019-04-14T12:24:24.621Z,7.97
2019-04-14T12:26:54.749Z,7.40
2019-04-14T12:29:26.415Z,6.53
2019-04-14T12:31:57.441Z,6.93
2019-04-14T12:34:27.950Z,6.87
2019-04-14T12:36:58.238Z,6.80
2019-04-14T12:39:28.513Z,5.80
2019-04-14T12:42:00.512Z,6.90
2019-04-14T12:44:32.487Z,6.13
2019-04-14T12:47:20.732Z,6.87
2019-04-14T12:49:55.552Z,6.17
2019-04-14T12:52:27.526Z,6.00
2019-04-14T12:54:58.879Z,6.20
2019-04-14T12:57:36.977Z,7.00
2019-04-14T13:00:10.563Z,6.43
2019-04-14T13:02:44.250Z,6.57
2019-04-14T13:05:14.959Z,6.23
2019-04-14T13:07:45.780Z,5.90
2019-04-14T13:10:16.678Z,6.30
2019-04-14T13:12:46.858Z,5.80
2019-04-14T13:15:16.880Z,5.30
2019-04-14T13:17:47.114Z,5.70
2019-04-14T13:20:17.848Z,6.00
2019-04-14T13:22:47.801Z,6.23
2019-04-14T13:25:18.069Z,4.97
2019-04-14T13:27:49.354Z,5.40
2019-04-14T13:30:21.067Z,5.17
2019-04-14T13:32:51.318Z,5.27
2019-04-14T13:35:21.331Z,5.50
2019-04-14T13:37:51.381Z,5.90
2019-04-14T13:40:21.478Z,4.73
2019-04-14T13:42:51.688Z,5.50
2019-04-14T13:45:21.774Z,5.43
2019-04-14T13:47:51.929Z,4.97
2019-04-14T13:50:22.089Z,5.33
2019-04-14T13:52:52.066Z,5.07
2019-04-14T13:55:22.112Z,5.20
2019-04-14T13:57:52.349Z,5.27
2019-04-14T14:00:23.123Z,7.20
2019-04-14T14:02:53.577Z,8.40
2019-04-14T14:05:24.938Z,5.73
2019-04-14T14:07:54.994Z,5.87
2019-04-14T14:10:25.140Z,5.10
2019-04-14T14:12:57.561Z,4.97
2019-04-14T14:15:32.371Z,5.10
2019-04-14T14:18:13.069Z,4.90
2019-04-14T14:20:44.620Z,5.23
2019-04-14T14:23:18.977Z,4.97
2019-04-14T14:25:50.752Z,5.40
2019-04-14T14:28:20.910Z,5.23
2019-04-14T14:30:51.021Z,4.80
2019-04-14T14:33:21.303Z,11.30
2019-04-14T14:35:51.302Z,5.37
2019-04-14T14:38:21.242Z,5.30
2019-04-14T14:40:52.007Z,4.97
2019-04-14T14:43:22.035Z,5.00
2019-04-14T14:45:56.550Z,5.17
2019-04-14T14:48:34.241Z,5.27
2019-04-14T14:51:12.450Z,4.60
2019-04-14T14:53:42.695Z,5.00
2019-04-14T14:56:12.594Z,4.53
2019-04-14T14:58:45.231Z,15.17
2019-04-14T15:01:14.791Z,14.57
2019-04-14T15:03:44.904Z,8.23
2019-04-14T15:06:14.744Z,5.03
2019-04-14T15:08:44.975Z,5.23
2019-04-14T15:11:15.131Z,4.73
2019-04-14T15:13:45.180Z,4.10
2019-04-14T15:16:15.393Z,3.93
2019-04-14T15:18:45.491Z,7.37
2019-04-14T15:21:15.833Z,6.50
2019-04-14T15:23:45.778Z,4.07
2019-04-14T15:26:15.911Z,4.00
2019-04-14T15:28:46.006Z,4.27
2019-04-14T15:31:16.134Z,4.27
2019-04-14T15:33:46.379Z,4.27
2019-04-14T15:36:16.543Z,4.27
2019-04-14T15:38:46.786Z,4.20
2019-04-14T15:41:17.130Z,3.90
2019-04-14T15:43:47.544Z,3.60
2019-04-14T15:46:17.780Z,5.00
2019-04-14T15:48:48.051Z,4.40
2019-04-14T15:51:18.442Z,3.90
2019-04-14T15:53:48.637Z,4.20
2019-04-14T15:56:36.430Z,4.37
2019-04-14T15:59:10.801Z,4.03
2019-04-14T16:01:48.611Z,3.93
2019-04-14T16:04:23.439Z,4.20
2019-04-14T16:06:55.043Z,3.70
2019-04-14T16:09:42.097Z,4.07
2019-04-14T16:12:13.877Z,5.20
2019-04-14T16:14:57.504Z,3.97
2019-04-14T16:17:29.502Z,4.37
2019-04-14T16:20:11.400Z,4.00
2019-04-14T16:22:41.828Z,4.63
2019-04-14T16:25:13.061Z,4.70
2019-04-14T16:27:47.777Z,4.13
2019-04-14T16:30:36.001Z,4.37
2019-04-14T16:33:07.865Z,4.57
2019-04-14T16:35:39.716Z,4.90
2019-04-14T16:38:10.054Z,4.20
2019-04-14T16:40:40.274Z,4.13
2019-04-14T16:43:10.406Z,5.80
2019-04-14T16:45:40.624Z,4.70
2019-04-14T16:48:10.903Z,4.27
2019-04-14T16:50:41.085Z,4.07
2019-04-14T16:53:19.072Z,4.40
2019-04-14T16:55:53.750Z,4.10
2019-04-14T16:58:28.246Z,4.90
2019-04-14T17:00:59.986Z,4.93
2019-04-14T17:03:30.229Z,4.17
2019-04-14T17:06:00.831Z,4.00
2019-04-14T17:08:30.800Z,4.17
2019-04-14T17:11:00.968Z,4.30
2019-04-14T17:13:32.658Z,4.67
2019-04-14T17:16:13.278Z,4.47
2019-04-14T17:18:45.259Z,4.70
2019-04-14T17:21:32.531Z,5.03
2019-04-14T17:24:16.272Z,4.47
2019-04-14T17:26:52.785Z,4.40
2019-04-14T17:29:24.925Z,4.60
2019-04-14T17:31:59.896Z,4.70
2019-04-14T17:34:37.014Z,4.60
2019-04-14T17:37:15.054Z,5.00
2019-04-14T17:39:49.564Z,4.53
2019-04-14T17:42:27.820Z,5.17
2019-04-14T17:44:59.538Z,5.30
2019-04-14T17:47:31.270Z,4.87
2019-04-14T17:50:09.340Z,5.10
2019-04-14T17:52:50.123Z,5.63
2019-04-14T17:55:21.909Z,5.20
2019-04-14T17:58:05.635Z,4.83
2019-04-14T18:00:53.646Z,4.97
2019-04-14T18:03:34.388Z,5.93
2019-04-14T18:06:12.593Z,5.80
2019-04-14T18:08:44.285Z,5.13
2019-04-14T18:11:21.878Z,4.93
2019-04-14T18:14:02.742Z,4.83
2019-04-14T18:16:34.454Z,6.20
2019-04-14T18:19:09.051Z,5.27
2019-04-14T18:21:38.972Z,5.37
2019-04-14T18:24:09.265Z,5.83
2019-04-14T18:26:39.571Z,6.43
2019-04-14T18:29:17.166Z,5.40
2019-04-14T18:31:49.187Z,5.40
2019-04-14T18:34:29.719Z,5.53
2019-04-14T18:37:07.249Z,5.40
2019-04-14T18:39:44.751Z,5.50
2019-04-14T18:42:16.673Z,5.47
2019-04-14T18:44:48.493Z,5.87
2019-04-14T18:47:20.305Z,4.97
2019-04-14T18:50:01.612Z,6.57
2019-04-14T18:52:33.528Z,5.40
2019-04-14T18:55:08.682Z,5.90
2019-04-14T18:57:46.471Z,5.07
2019-04-14T19:00:24.271Z,5.70
2019-04-14T19:02:54.588Z,6.03
2019-04-14T19:05:24.963Z,5.10
2019-04-14T19:07:55.249Z,5.10
2019-04-14T19:10:25.459Z,5.40
2019-04-14T19:13:00.070Z,5.93
2019-04-14T19:15:33.107Z,5.37
2019-04-14T19:18:14.271Z,4.97
2019-04-14T19:20:46.322Z,4.93
2019-04-14T19:23:16.742Z,5.20
2019-04-14T19:25:47.025Z,4.57
2019-04-14T19:28:17.105Z,5.03
2019-04-14T19:30:47.388Z,5.67
2019-04-14T19:33:17.647Z,4.87
2019-04-14T19:35:48.541Z,5.07
2019-04-14T19:38:19.153Z,6.13
2019-04-14T19:40:49.239Z,5.03
2019-04-14T19:43:23.932Z,5.60
2019-04-14T19:45:51.136Z,5.30
2019-04-14T19:48:21.433Z,5.00
2019-04-14T19:50:51.693Z,5.97
2019-04-14T19:53:21.914Z,5.50
2019-04-14T19:55:53.803Z,5.70
2019-04-14T19:58:24.286Z,5.60
2019-04-14T20:00:54.386Z,5.93
2019-04-14T20:03:26.777Z,5.10
2019-04-14T20:05:56.866Z,5.40
2019-04-14T20:08:27.075Z,5.70
2019-04-14T20:10:57.553Z,5.80
2019-04-14T20:13:29.514Z,5.53
2019-04-14T20:16:04.399Z,5.43
2019-04-14T20:18:39.525Z,5.80
2019-04-14T20:21:28.025Z,6.37
2019-04-14T20:23:59.828Z,5.53
2019-04-14T20:26:31.877Z,5.43
2019-04-14T20:29:03.913Z,5.13
2019-04-14T20:31:39.151Z,5.77
2019-04-14T20:34:09.348Z,5.70
2019-04-14T20:36:39.839Z,5.57
2019-04-14T20:39:11.806Z,5.17
2019-04-14T20:41:42.081Z,5.20
2019-04-14T20:44:12.815Z,5.60
2019-04-14T20:46:43.225Z,5.83
2019-04-14T20:49:13.749Z,5.17
2019-04-14T20:51:44.428Z,5.53
2019-04-14T20:54:14.742Z,4.77
2019-04-14T20:56:45.094Z,6.27
2019-04-14T20:59:15.253Z,5.13
2019-04-14T21:01:47.270Z,4.87
2019-04-14T21:04:29.338Z,5.00
2019-04-14T21:07:20.177Z,5.43
2019-04-14T21:10:04.155Z,5.27
2019-04-14T21:12:48.148Z,5.83
2019-04-14T21:15:32.327Z,5.57
2019-04-14T21:18:04.147Z,5.03
2019-04-14T21:20:39.178Z,5.00
2019-04-14T21:23:17.377Z,4.83
2019-04-14T21:26:07.145Z,5.23
2019-04-14T21:28:51.458Z,5.13
2019-04-14T21:31:32.138Z,5.17
2019-04-14T21:34:10.014Z,4.87
2019-04-14T21:36:58.615Z,4.47
2019-04-14T21:39:36.588Z,5.10
2019-04-14T21:42:07.589Z,4.57
2019-04-14T21:44:37.930Z,5.17
2019-04-14T21:47:08.386Z,5.07
2019-04-14T21:49:38.804Z,4.43
2019-04-14T21:52:10.572Z,5.33
2019-04-14T21:54:42.427Z,5.07
2019-04-14T21:57:14.247Z,5.20
2019-04-14T21:59:49.644Z,4.80
2019-04-14T22:02:33.705Z,5.23
2019-04-14T22:05:22.926Z,5.23
2019-04-14T22:08:00.928Z,5.53
2019-04-14T22:10:32.592Z,5.27
2019-04-14T22:13:02.954Z,4.50
2019-04-14T22:15:33.268Z,3.97
2019-04-14T22:18:04.077Z,4.60
2019-04-14T22:20:34.173Z,4.07
2019-04-14T22:23:06.067Z,4.23
2019-04-14T22:25:36.286Z,4.20
2019-04-14T22:28:06.403Z,4.40
2019-04-14T22:30:36.673Z,4.30
2019-04-14T22:33:07.452Z,4.33
2019-04-14T22:35:37.793Z,4.20
2019-04-14T22:38:07.754Z,4.70
2019-04-14T22:40:38.127Z,4.80
2019-04-14T22:43:08.139Z,4.80
2019-04-14T22:45:38.665Z,4.07
2019-04-14T22:48:08.632Z,4.43
2019-04-14T22:50:38.905Z,4.07
2019-04-14T22:53:10.585Z,4.40
2019-04-14T22:55:40.986Z,4.37
2019-04-14T22:58:11.419Z,4.27
2019-04-14T23:00:49.146Z,4.00
2019-04-14T23:03:39.093Z,3.90
2019-04-14T23:06:14.769Z,3.90
2019-04-14T23:08:47.043Z,3.97
2019-04-14T23:11:37.631Z,4.03
2019-04-14T23:14:27.611Z,3.90
2019-04-14T23:17:17.096Z,4.00
2019-04-14T23:19:49.499Z,4.10
2019-04-14T23:22:24.417Z,4.20
2019-04-14T23:24:54.581Z,4.53
2019-04-14T23:27:24.738Z,4.47
2019-04-14T23:29:54.955Z,5.27
2019-04-14T23:32:25.176Z,4.17
2019-04-14T23:34:55.201Z,4.60
2019-04-14T23:37:25.327Z,4.80
2019-04-14T23:39:55.440Z,3.73
2019-04-14T23:42:25.431Z,3.53
2019-04-14T23:44:55.422Z,4.13
2019-04-14T23:47:25.647Z,4.37
2019-04-14T23:49:55.719Z,4.00
2019-04-14T23:52:25.962Z,3.90
2019-04-14T23:54:56.180Z,4.57
2019-04-14T23:57:26.498Z,3.90
2019-04-14T23:59:56.505Z,4.33
